createdAt,value
2024-01-24T00:00:42.225Z,1.30
2024-01-24T00:03:08.798Z,1.17
2024-01-24T00:05:35.152Z,1.30
2024-01-24T00:08:01.533Z,1.13
2024-01-24T00:10:27.897Z,1.13
2024-01-24T00:12:55.559Z,1.70
2024-01-24T00:15:21.975Z,1.35
2024-01-24T00:17:48.337Z,1.52
2024-01-24T00:20:14.953Z,1.70
2024-01-24T00:22:41.301Z,1.30
2024-01-24T00:25:07.808Z,1.83
2024-01-24T00:27:34.141Z,1.65
2024-01-24T00:30:00.412Z,1.60
2024-01-24T00:32:26.700Z,1.67
2024-01-24T00:34:53.070Z,1.80
2024-01-24T00:37:19.390Z,1.50
2024-01-24T00:39:47.818Z,1.90
2024-01-24T00:42:14.242Z,1.60
2024-01-24T00:44:40.728Z,1.40
2024-01-24T00:47:07.192Z,1.92
2024-01-24T00:49:33.586Z,1.88
2024-01-24T00:51:59.989Z,1.40
2024-01-24T00:54:26.258Z,1.88
2024-01-24T00:56:52.563Z,1.55
2024-01-24T00:59:19.096Z,2.05
2024-01-24T01:01:45.356Z,1.80
2024-01-24T01:04:11.767Z,1.60
2024-01-24T01:06:38.103Z,1.85
2024-01-24T01:09:04.436Z,2.15
2024-01-24T01:11:30.737Z,2.33
2024-01-24T01:13:57.080Z,2.03
2024-01-24T01:16:23.347Z,2.22
2024-01-24T01:18:49.699Z,1.90
2024-01-24T01:21:16.126Z,1.88
2024-01-24T01:23:42.657Z,1.60
2024-01-24T01:26:08.989Z,2.00
2024-01-24T01:28:35.539Z,1.80
2024-01-24T01:31:01.796Z,1.92
2024-01-24T01:33:28.205Z,2.05
2024-01-24T01:36:08.255Z,1.85
2024-01-24T01:38:40.300Z,1.70
2024-01-24T01:41:06.564Z,2.05
2024-01-24T01:43:32.869Z,1.65
2024-01-24T01:46:03.915Z,2.10
2024-01-24T01:48:30.397Z,2.10
2024-01-24T01:50:57.298Z,1.63
2024-01-24T01:53:23.763Z,1.88
2024-01-24T01:55:50.388Z,1.55
2024-01-24T01:58:16.702Z,1.90
2024-01-24T02:00:44.331Z,2.03
2024-01-24T02:03:11.574Z,1.80
2024-01-24T02:05:39.441Z,1.80
2024-01-24T02:08:06.117Z,1.33
2024-01-24T02:10:32.432Z,1.50
2024-01-24T02:12:58.849Z,1.80
2024-01-24T02:15:25.465Z,1.60
2024-01-24T02:17:51.797Z,1.30
2024-01-24T02:20:19.351Z,1.30
2024-01-24T02:22:45.687Z,1.80
2024-01-24T02:25:12.051Z,1.83
2024-01-24T02:27:38.360Z,1.65
2024-01-24T02:30:06.120Z,1.67
2024-01-24T02:32:32.458Z,1.60
2024-01-24T02:34:58.959Z,1.55
2024-01-24T02:37:25.266Z,1.80
2024-01-24T02:39:51.902Z,1.30
2024-01-24T02:42:18.321Z,1.40
2024-01-24T02:44:44.660Z,1.17
2024-01-24T02:47:10.965Z,1.30
2024-01-24T02:49:37.444Z,1.20
2024-01-24T02:52:04.060Z,1.30
2024-01-24T02:54:30.464Z,1.23
2024-01-24T02:56:56.819Z,1.00
2024-01-24T02:59:23.172Z,1.08
2024-01-24T03:01:49.608Z,0.90
2024-01-24T03:04:15.962Z,1.20
2024-01-24T03:06:42.671Z,0.93
2024-01-24T03:09:09.531Z,1.10
2024-01-24T03:11:35.805Z,0.90
2024-01-24T03:14:02.331Z,1.08
2024-01-24T03:16:28.700Z,0.90
2024-01-24T03:18:55.111Z,0.88
2024-01-24T03:21:21.824Z,0.80
2024-01-24T03:23:48.204Z,0.90
2024-01-24T03:26:16.267Z,0.70
2024-01-24T03:28:42.606Z,0.93
2024-01-24T03:31:08.873Z,0.73
2024-01-24T03:33:36.833Z,0.80
2024-01-24T03:36:03.762Z,0.70
2024-01-24T03:38:30.487Z,0.75
2024-01-24T03:40:56.811Z,1.15
2024-01-24T03:43:23.197Z,0.70
2024-01-24T03:45:49.579Z,0.60
2024-01-24T03:48:15.930Z,1.00
2024-01-24T03:50:42.317Z,0.65
2024-01-24T03:53:08.717Z,0.68
2024-01-24T03:55:34.978Z,0.70
2024-01-24T03:58:01.699Z,0.70
2024-01-24T04:00:28.957Z,0.60
2024-01-24T04:02:55.523Z,0.65
2024-01-24T04:05:21.971Z,0.40
2024-01-24T04:07:48.333Z,0.50
2024-01-24T04:10:14.662Z,0.68
2024-01-24T04:12:41.040Z,0.50
2024-01-24T04:15:07.838Z,0.40
2024-01-24T04:17:34.151Z,0.40
2024-01-24T04:20:00.489Z,0.50
2024-01-24T04:22:26.912Z,0.70
2024-01-24T04:24:53.370Z,0.47
2024-01-24T04:27:19.735Z,0.50
2024-01-24T04:29:46.115Z,0.57
2024-01-24T04:32:12.389Z,0.43
2024-01-24T04:34:38.720Z,0.43
2024-01-24T04:37:05.015Z,0.65
2024-01-24T04:39:31.655Z,0.40
2024-01-24T04:42:05.534Z,0.40
2024-01-24T04:44:38.318Z,0.60
2024-01-24T04:47:04.765Z,0.50
2024-01-24T04:49:40.257Z,0.50
2024-01-24T04:52:11.458Z,0.60
2024-01-24T04:54:37.849Z,0.40
2024-01-24T04:57:05.062Z,0.50
2024-01-24T04:59:34.675Z,0.50
2024-01-24T05:04:29.158Z,0.45
2024-01-24T05:06:55.458Z,0.63
2024-01-24T05:09:21.823Z,0.50
2024-01-24T05:11:48.122Z,0.60
2024-01-24T05:14:14.507Z,0.60
2024-01-24T05:16:41.962Z,0.57
2024-01-24T05:19:08.301Z,0.55
2024-01-24T05:21:41.942Z,0.60
2024-01-24T05:24:10.011Z,0.60
2024-01-24T05:26:37.353Z,0.63
2024-01-24T05:29:05.483Z,0.75
2024-01-24T05:31:32.046Z,0.60
2024-01-24T05:33:58.497Z,0.63
2024-01-24T05:36:24.836Z,0.60
2024-01-24T05:38:51.167Z,0.88
2024-01-24T05:41:17.435Z,0.75
2024-01-24T05:43:43.820Z,0.70
2024-01-24T05:46:10.164Z,0.90
2024-01-24T05:48:36.595Z,0.80
2024-01-24T05:51:03.075Z,1.02
2024-01-24T05:53:29.458Z,1.10
2024-01-24T05:55:55.872Z,1.10
2024-01-24T05:58:22.232Z,1.35
2024-01-24T06:00:48.621Z,1.60
2024-01-24T06:03:15.021Z,1.35
2024-01-24T06:05:41.357Z,1.50
2024-01-24T06:08:07.763Z,1.52
2024-01-24T06:10:34.437Z,1.67
2024-01-24T06:13:00.701Z,1.45
2024-01-24T06:15:27.078Z,1.70
2024-01-24T06:17:53.511Z,1.40
2024-01-24T06:20:20.221Z,1.77
2024-01-24T06:22:47.507Z,1.90
2024-01-24T06:25:14.993Z,1.58
2024-01-24T06:27:43.101Z,2.30
2024-01-24T06:30:19.853Z,2.55
2024-01-24T06:32:49.940Z,1.90
2024-01-24T06:35:17.085Z,2.25
2024-01-24T06:37:43.435Z,2.28
2024-01-24T06:40:11.112Z,2.55
2024-01-24T06:42:38.426Z,2.67
2024-01-24T06:45:04.917Z,3.17
2024-01-24T06:47:31.235Z,3.38
2024-01-24T06:49:57.592Z,3.33
2024-01-24T06:52:23.861Z,3.60
2024-01-24T06:54:50.290Z,3.72
2024-01-24T06:57:16.725Z,4.13
2024-01-24T06:59:43.151Z,3.63
2024-01-24T07:02:09.647Z,5.40
2024-01-24T07:04:36.154Z,5.15
2024-01-24T07:07:02.689Z,3.45
2024-01-24T07:09:29.265Z,3.47
2024-01-24T07:11:55.561Z,3.83
2024-01-24T07:14:21.862Z,4.22
2024-01-24T07:16:48.374Z,4.38
2024-01-24T07:19:14.967Z,4.22
2024-01-24T07:21:41.425Z,4.00
2024-01-24T07:24:08.209Z,3.95
2024-01-24T07:26:35.237Z,3.88
2024-01-24T07:29:01.566Z,3.95
2024-01-24T07:31:27.941Z,4.13
2024-01-24T07:33:54.907Z,5.03
2024-01-24T07:36:24.205Z,4.63
2024-01-24T07:38:50.595Z,3.88
2024-01-24T07:41:16.908Z,4.55
2024-01-24T07:43:43.264Z,5.18
2024-01-24T07:46:11.223Z,4.38
2024-01-24T07:48:38.021Z,4.03
2024-01-24T07:51:05.567Z,4.13
2024-01-24T07:53:32.139Z,5.88
2024-01-24T07:56:07.301Z,4.95
2024-01-24T07:58:42.665Z,4.50
2024-01-24T08:01:09.522Z,4.97
2024-01-24T08:03:36.014Z,4.22
2024-01-24T08:06:03.688Z,5.38
2024-01-24T08:08:30.680Z,5.28
2024-01-24T08:10:56.960Z,5.00
2024-01-24T08:13:23.284Z,4.65
2024-01-24T08:15:49.727Z,5.47
2024-01-24T08:18:16.383Z,4.90
2024-01-24T08:20:42.707Z,5.57
2024-01-24T08:23:09.489Z,5.38
2024-01-24T08:25:35.807Z,4.75
2024-01-24T08:28:02.221Z,4.95
2024-01-24T08:30:28.617Z,4.35
2024-01-24T08:32:54.990Z,5.00
2024-01-24T08:35:21.666Z,5.03
2024-01-24T08:37:47.993Z,6.18
2024-01-24T08:40:14.528Z,5.30
2024-01-24T08:42:43.093Z,4.30
2024-01-24T08:45:10.480Z,5.18
2024-01-24T08:47:37.757Z,5.35
2024-01-24T08:50:05.324Z,5.70
2024-01-24T08:52:33.020Z,5.78
2024-01-24T08:54:59.651Z,6.22
2024-01-24T08:57:27.884Z,6.40
2024-01-24T08:59:54.764Z,5.45
2024-01-24T09:02:22.014Z,5.85
2024-01-24T09:04:49.679Z,5.68
2024-01-24T09:07:17.592Z,6.47
2024-01-24T09:09:44.184Z,6.82
2024-01-24T09:12:10.809Z,6.65
2024-01-24T09:14:37.214Z,6.75
2024-01-24T09:17:04.305Z,5.75
2024-01-24T09:19:30.994Z,6.00
2024-01-24T09:21:57.480Z,6.35
2024-01-24T09:24:23.863Z,5.88
2024-01-24T09:26:50.403Z,5.80
2024-01-24T09:29:16.865Z,5.70
2024-01-24T09:31:46.405Z,5.88
2024-01-24T09:34:13.460Z,6.65
2024-01-24T09:36:39.950Z,7.57
2024-01-24T09:39:06.290Z,7.18
2024-01-24T09:41:35.372Z,5.97
2024-01-24T09:44:04.829Z,6.53
2024-01-24T09:46:31.787Z,6.63
2024-01-24T09:48:58.143Z,6.35
2024-01-24T09:51:24.632Z,7.18
2024-01-24T09:53:52.035Z,6.90
2024-01-24T09:56:19.630Z,6.57
2024-01-24T09:58:46.102Z,7.13
2024-01-24T10:01:15.467Z,6.65
2024-01-24T10:03:45.115Z,6.72
2024-01-24T10:06:13.945Z,6.57
2024-01-24T10:08:40.296Z,6.38
2024-01-24T10:11:07.054Z,6.05
2024-01-24T10:13:33.486Z,6.97
2024-01-24T10:16:01.061Z,6.72
2024-01-24T10:18:27.780Z,6.93
2024-01-24T10:20:55.089Z,5.88
2024-01-24T10:23:22.247Z,5.75
2024-01-24T10:25:49.671Z,7.03
2024-01-24T10:28:17.982Z,6.30
2024-01-24T10:30:44.519Z,6.43
2024-01-24T10:33:11.824Z,7.95
2024-01-24T10:35:38.241Z,6.10
2024-01-24T10:38:05.128Z,6.63
2024-01-24T10:40:31.928Z,6.45
2024-01-24T10:43:06.504Z,6.82
2024-01-24T10:45:33.979Z,6.18
2024-01-24T10:48:00.972Z,6.50
2024-01-24T10:50:27.486Z,6.85
2024-01-24T10:52:55.103Z,6.50
2024-01-24T10:55:22.068Z,7.30
2024-01-24T10:57:49.763Z,7.20
2024-01-24T11:00:18.973Z,7.18
2024-01-24T11:02:45.467Z,6.57
2024-01-24T11:05:17.630Z,6.85
2024-01-24T11:07:59.052Z,6.20
2024-01-24T11:10:28.658Z,6.97
2024-01-24T11:12:55.086Z,6.80
2024-01-24T11:15:23.299Z,7.85
2024-01-24T11:18:08.539Z,5.78
2024-01-24T11:20:45.509Z,6.95
2024-01-24T11:23:30.663Z,6.63
2024-01-24T11:25:57.055Z,7.13
2024-01-24T11:28:26.472Z,7.20
2024-01-24T11:30:52.965Z,6.43
2024-01-24T11:33:20.353Z,7.03
2024-01-24T11:35:47.860Z,6.97
2024-01-24T11:38:32.920Z,6.90
2024-01-24T11:41:24.074Z,6.85
2024-01-24T11:43:50.761Z,5.75
2024-01-24T11:46:19.274Z,6.32
2024-01-24T11:48:45.747Z,7.90
2024-01-24T11:51:12.999Z,6.80
2024-01-24T11:53:39.499Z,5.53
2024-01-24T11:56:06.836Z,6.32
2024-01-24T11:58:33.391Z,6.40
2024-01-24T12:00:59.733Z,5.88
2024-01-24T12:03:26.242Z,6.57
2024-01-24T12:05:53.028Z,6.20
2024-01-24T12:08:19.907Z,5.82
2024-01-24T12:10:46.323Z,6.78
2024-01-24T12:13:13.793Z,6.03
2024-01-24T12:15:40.550Z,5.78
2024-01-24T12:18:10.849Z,6.78
2024-01-24T12:20:37.733Z,6.93
2024-01-24T12:23:04.739Z,5.75
2024-01-24T12:25:33.935Z,5.63
2024-01-24T12:28:02.507Z,7.03
2024-01-24T12:30:35.907Z,5.97
2024-01-24T12:33:03.473Z,7.50
2024-01-24T12:35:30.240Z,5.80
2024-01-24T12:38:00.935Z,6.35
2024-01-24T12:40:31.472Z,6.60
2024-01-24T12:42:58.403Z,6.55
2024-01-24T12:45:25.944Z,6.25
2024-01-24T12:47:53.276Z,6.22
2024-01-24T12:50:19.918Z,5.50
2024-01-24T12:52:46.381Z,5.82
2024-01-24T12:55:13.057Z,6.30
2024-01-24T12:57:40.655Z,5.20
2024-01-24T13:00:11.045Z,6.10
2024-01-24T13:02:39.046Z,5.88
2024-01-24T13:05:06.259Z,5.43
2024-01-24T13:07:33.249Z,6.43
2024-01-24T13:10:03.359Z,5.95
2024-01-24T13:12:33.339Z,6.60
2024-01-24T13:14:59.955Z,5.85
2024-01-24T13:17:26.423Z,6.75
2024-01-24T13:19:52.878Z,6.10
2024-01-24T13:22:19.283Z,6.30
2024-01-24T13:24:46.344Z,6.55
2024-01-24T13:27:12.779Z,6.15
2024-01-24T13:29:39.208Z,6.05
2024-01-24T13:32:05.851Z,5.70
2024-01-24T13:34:32.412Z,5.65
2024-01-24T13:36:58.975Z,6.03
2024-01-24T13:39:26.210Z,6.07
2024-01-24T13:41:52.613Z,6.68
2024-01-24T13:44:19.162Z,6.28
2024-01-24T13:46:45.546Z,5.82
2024-01-24T13:49:12.035Z,6.15
2024-01-24T13:51:43.103Z,5.45
2024-01-24T13:54:11.227Z,5.95
2024-01-24T13:56:37.721Z,6.30
2024-01-24T13:59:04.072Z,6.20
2024-01-24T14:01:31.607Z,6.63
2024-01-24T14:03:59.287Z,6.55
2024-01-24T14:06:26.054Z,5.50
2024-01-24T14:08:52.568Z,6.68
2024-01-24T14:11:18.910Z,6.30
2024-01-24T14:13:49.976Z,6.90
2024-01-24T14:16:18.278Z,6.20
2024-01-24T14:18:45.155Z,6.68
2024-01-24T14:21:12.473Z,5.82
2024-01-24T14:23:40.819Z,6.05
2024-01-24T14:26:09.639Z,6.28
2024-01-24T14:28:37.410Z,5.65
2024-01-24T14:31:03.870Z,6.78
2024-01-24T14:33:34.617Z,5.47
2024-01-24T14:38:27.967Z,6.20
2024-01-24T14:40:54.996Z,6.13
2024-01-24T14:43:21.354Z,6.28
2024-01-24T14:45:47.895Z,6.65
2024-01-24T14:48:14.525Z,6.55
2024-01-24T14:50:40.892Z,6.45
2024-01-24T14:53:07.360Z,6.90
2024-01-24T14:55:33.620Z,7.05
2024-01-24T14:58:01.130Z,5.55
2024-01-24T15:00:30.418Z,7.13
2024-01-24T15:02:57.317Z,6.43
2024-01-24T15:05:25.348Z,6.25
2024-01-24T15:07:51.904Z,5.45
2024-01-24T15:10:18.351Z,6.35
2024-01-24T15:12:45.374Z,6.75
2024-01-24T15:15:11.782Z,6.32
2024-01-24T15:17:38.314Z,6.07
2024-01-24T15:20:05.563Z,5.95
2024-01-24T15:22:33.117Z,7.05
2024-01-24T15:25:03.234Z,6.50
2024-01-24T15:27:29.742Z,5.95
2024-01-24T15:29:56.329Z,5.95
2024-01-24T15:32:22.895Z,7.40
2024-01-24T15:34:49.423Z,6.38
2024-01-24T15:37:17.063Z,5.78
2024-01-24T15:39:43.971Z,5.90
2024-01-24T15:42:12.304Z,6.28
2024-01-24T15:44:38.692Z,5.72
2024-01-24T15:47:05.309Z,5.40
2024-01-24T15:49:31.819Z,5.85
2024-01-24T15:51:58.293Z,6.15
2024-01-24T15:54:24.809Z,6.70
2024-01-24T15:56:51.140Z,6.18
2024-01-24T15:59:17.524Z,6.35
2024-01-24T16:01:48.625Z,6.40
2024-01-24T16:04:17.036Z,6.57
2024-01-24T16:06:43.652Z,6.28
2024-01-24T16:09:10.227Z,6.25
2024-01-24T16:11:37.227Z,5.45
2024-01-24T16:14:03.769Z,6.72
2024-01-24T16:16:30.352Z,6.10
2024-01-24T16:18:56.890Z,5.85
2024-01-24T16:21:23.976Z,5.20
2024-01-24T16:23:50.379Z,5.35
2024-01-24T16:26:17.040Z,6.03
2024-01-24T16:28:44.452Z,6.05
2024-01-24T16:31:11.041Z,6.43
2024-01-24T16:33:37.480Z,5.25
2024-01-24T16:36:05.482Z,7.07
2024-01-24T16:38:32.874Z,6.63
2024-01-24T16:40:59.707Z,6.63
2024-01-24T16:43:31.512Z,5.95
2024-01-24T16:45:58.719Z,5.40
2024-01-24T16:48:25.298Z,6.03
2024-01-24T16:50:51.961Z,5.85
2024-01-24T16:53:19.768Z,7.38
2024-01-24T16:55:46.158Z,5.80
2024-01-24T16:58:14.287Z,6.47
2024-01-24T17:00:40.613Z,5.50
2024-01-24T17:03:06.957Z,6.78
2024-01-24T17:05:33.596Z,5.35
2024-01-24T17:08:00.027Z,6.45
2024-01-24T17:10:26.339Z,5.63
2024-01-24T17:12:52.711Z,6.50
2024-01-24T17:15:19.132Z,6.30
2024-01-24T17:17:45.730Z,6.45
2024-01-24T17:20:12.145Z,6.47
2024-01-24T17:22:38.440Z,7.65
2024-01-24T17:25:06.924Z,6.55
2024-01-24T17:27:33.288Z,6.35
2024-01-24T17:29:59.753Z,7.05
2024-01-24T17:32:26.130Z,6.47
2024-01-24T17:34:53.355Z,6.80
2024-01-24T17:37:19.909Z,7.45
2024-01-24T17:39:51.978Z,7.22
2024-01-24T17:42:18.326Z,7.95
2024-01-24T17:44:44.782Z,6.28
2024-01-24T17:47:11.602Z,7.43
2024-01-24T17:49:38.017Z,7.38
2024-01-24T17:52:04.598Z,7.93
2024-01-24T17:54:30.952Z,8.32
2024-01-24T17:56:57.501Z,7.10
2024-01-24T17:59:23.843Z,7.05
2024-01-24T18:01:51.292Z,9.00
2024-01-24T18:04:17.997Z,7.60
2024-01-24T18:06:44.598Z,7.13
2024-01-24T18:09:12.353Z,7.30
2024-01-24T18:11:39.889Z,7.63
2024-01-24T18:14:06.280Z,8.02
2024-01-24T18:16:32.579Z,7.80
2024-01-24T18:18:58.993Z,8.30
2024-01-24T18:21:26.938Z,7.65
2024-01-24T18:23:54.028Z,7.40
2024-01-24T18:26:20.546Z,7.53
2024-01-24T18:28:48.554Z,7.93
2024-01-24T18:31:15.862Z,7.50
2024-01-24T18:33:42.829Z,8.20
2024-01-24T18:36:11.049Z,8.38
2024-01-24T18:38:38.346Z,8.15
2024-01-24T18:41:04.917Z,8.77
2024-01-24T18:43:31.228Z,8.35
2024-01-24T18:46:00.058Z,7.78
2024-01-24T18:48:26.535Z,7.15
2024-01-24T18:50:52.887Z,8.25
2024-01-24T18:53:19.212Z,8.70
2024-01-24T18:55:46.076Z,7.97
2024-01-24T18:58:13.086Z,7.93
2024-01-24T19:00:41.222Z,8.73
2024-01-24T19:03:08.216Z,8.40
2024-01-24T19:05:38.666Z,9.43
2024-01-24T19:08:08.728Z,8.27
2024-01-24T19:10:36.478Z,9.35
2024-01-24T19:13:03.385Z,7.97
2024-01-24T19:15:30.369Z,8.05
2024-01-24T19:17:57.215Z,7.35
2024-01-24T19:20:24.445Z,8.10
2024-01-24T19:22:57.562Z,8.95
2024-01-24T19:25:23.986Z,8.75
2024-01-24T19:27:50.284Z,7.38
2024-01-24T19:30:17.183Z,7.07
2024-01-24T19:32:43.890Z,7.22
2024-01-24T19:35:10.611Z,8.00
2024-01-24T19:37:36.952Z,9.68
2024-01-24T19:40:05.928Z,7.72
2024-01-24T19:42:32.768Z,7.70
2024-01-24T19:44:59.363Z,8.18
2024-01-24T19:47:32.144Z,8.40
2024-01-24T19:49:58.594Z,8.75
2024-01-24T19:52:24.960Z,7.25
2024-01-24T19:54:51.997Z,7.32
2024-01-24T19:57:18.587Z,7.88
2024-01-24T19:59:46.764Z,8.65
2024-01-24T20:02:13.261Z,9.23
2024-01-24T20:04:39.671Z,7.80
2024-01-24T20:07:12.966Z,8.93
2024-01-24T20:10:05.354Z,7.70
2024-01-24T20:12:32.025Z,7.75
2024-01-24T20:14:58.612Z,8.52
2024-01-24T20:17:25.324Z,8.32
2024-01-24T20:19:52.556Z,8.43
2024-01-24T20:22:19.049Z,8.57
2024-01-24T20:24:46.764Z,9.48
2024-01-24T20:27:13.458Z,8.93
2024-01-24T20:29:41.562Z,8.70
2024-01-24T20:32:08.095Z,9.32
2024-01-24T20:34:34.624Z,9.35
2024-01-24T20:37:02.811Z,9.63
2024-01-24T20:39:29.709Z,8.60
2024-01-24T20:42:11.195Z,9.18
2024-01-24T20:44:40.494Z,8.05
2024-01-24T20:47:17.025Z,8.52
2024-01-24T20:49:57.367Z,8.95
2024-01-24T20:52:39.207Z,9.55
2024-01-24T20:58:38.090Z,7.80
2024-01-24T21:01:20.303Z,8.52
2024-01-24T21:04:05.436Z,9.25
2024-01-24T21:06:32.450Z,9.32
2024-01-24T21:08:59.363Z,7.82
2024-01-24T21:11:25.853Z,8.90
2024-01-24T21:13:52.118Z,8.32
2024-01-24T21:16:18.662Z,8.15
2024-01-24T21:18:45.287Z,7.45
2024-01-24T21:21:12.010Z,8.93
2024-01-24T21:23:38.494Z,8.43
2024-01-24T21:26:04.798Z,7.72
2024-01-24T21:28:31.123Z,7.57
2024-01-24T21:30:57.405Z,8.13
2024-01-24T21:33:23.736Z,8.50
2024-01-24T21:35:50.128Z,8.15
2024-01-24T21:38:18.266Z,8.63
2024-01-24T21:40:44.607Z,8.35
2024-01-24T21:43:10.976Z,8.52
2024-01-24T21:45:37.368Z,9.75
2024-01-24T21:48:03.836Z,8.13
2024-01-24T21:50:30.143Z,8.57
2024-01-24T21:52:56.634Z,8.25
2024-01-24T21:55:23.005Z,8.20
2024-01-24T21:57:52.323Z,8.85
2024-01-24T22:00:19.150Z,9.45
2024-01-24T22:02:45.481Z,8.98
2024-01-24T22:05:11.852Z,7.47
2024-01-24T22:07:38.344Z,7.65
2024-01-24T22:10:05.007Z,8.10
2024-01-24T22:12:31.308Z,7.95
2024-01-24T22:14:57.556Z,7.80
2024-01-24T22:17:23.836Z,7.72
2024-01-24T22:19:50.153Z,7.53
2024-01-24T22:22:16.953Z,8.23
2024-01-24T22:24:43.354Z,8.15
2024-01-24T22:27:09.826Z,8.30
2024-01-24T22:29:36.106Z,7.88
2024-01-24T22:32:03.950Z,7.20
2024-01-24T22:34:30.668Z,9.10
2024-01-24T22:36:57.137Z,7.03
2024-01-24T22:39:23.488Z,8.00
2024-01-24T22:41:49.770Z,8.77
2024-01-24T22:44:17.607Z,7.72
2024-01-24T22:46:43.888Z,7.35
2024-01-24T22:49:11.404Z,8.07
2024-01-24T22:51:39.204Z,9.45
2024-01-24T22:54:05.962Z,8.80
2024-01-24T22:56:32.380Z,8.63
2024-01-24T22:58:58.737Z,10.38
2024-01-24T23:01:25.284Z,9.02
2024-01-24T23:03:51.732Z,8.43
2024-01-24T23:06:18.597Z,8.32
2024-01-24T23:08:45.006Z,7.90
2024-01-24T23:11:12.832Z,7.97
2024-01-24T23:13:39.265Z,9.07
2024-01-24T23:16:05.825Z,10.30
2024-01-24T23:18:32.119Z,8.48
2024-01-24T23:21:00.218Z,9.48
2024-01-24T23:23:26.616Z,9.65
2024-01-24T23:25:53.634Z,8.20
2024-01-24T23:28:20.083Z,8.05
2024-01-24T23:30:46.556Z,8.88
2024-01-24T23:33:13.096Z,10.45
2024-01-24T23:35:39.444Z,8.63
2024-01-24T23:38:05.961Z,8.82
2024-01-24T23:40:32.277Z,9.02
2024-01-24T23:42:58.908Z,9.25
2024-01-24T23:45:25.602Z,7.70
2024-01-24T23:47:52.050Z,8.93
2024-01-24T23:50:19.030Z,8.82
2024-01-24T23:52:45.553Z,9.88
2024-01-24T23:55:11.993Z,7.82
2024-01-24T23:57:38.375Z,10.05
